createdAt,value
2023-04-11T00:01:51.628Z,97638.97
2023-04-11T00:04:18.277Z,97641.63
2023-04-11T00:06:44.891Z,97642.44
2023-04-11T00:09:11.501Z,97634.06
2023-04-11T00:11:38.091Z,97626.88
2023-04-11T00:14:04.684Z,97626.72
2023-04-11T00:16:31.322Z,97614.44
2023-04-11T00:18:58.069Z,97612.16
2023-04-11T00:21:24.689Z,97607.09
2023-04-11T00:23:51.560Z,97604.00
2023-04-11T00:26:18.118Z,97600.06
2023-04-11T00:28:44.972Z,97603.66
2023-04-11T00:31:11.533Z,97604.47
2023-04-11T00:33:39.884Z,97600.53
2023-04-11T00:36:07.479Z,97598.75
2023-04-11T00:38:34.119Z,97588.09
2023-04-11T00:41:00.754Z,97596.16
2023-04-11T00:43:27.361Z,97593.16
2023-04-11T00:45:53.960Z,97591.53
2023-04-11T00:48:21.139Z,97587.59
2023-04-11T00:50:47.740Z,97589.25
2023-04-11T00:53:14.272Z,97585.16
2023-04-11T00:55:40.837Z,97582.88
2023-04-11T00:58:07.537Z,97571.25
2023-04-11T01:00:34.108Z,97562.78
2023-04-11T01:03:00.781Z,97559.56
2023-04-11T01:05:27.481Z,97564.81
2023-04-11T01:07:54.105Z,97546.50
2023-04-11T01:10:20.677Z,97552.13
2023-04-11T01:12:47.289Z,97549.81
2023-04-11T01:15:13.858Z,97540.34
2023-04-11T01:17:40.435Z,97538.22
2023-04-11T01:20:07.039Z,97528.72
2023-04-11T01:22:33.646Z,97532.00
2023-04-11T01:25:00.227Z,97533.63
2023-04-11T01:27:26.791Z,97531.00
2023-04-11T01:29:53.348Z,97533.97
2023-04-11T01:32:20.049Z,97527.38
2023-04-11T01:34:46.613Z,97520.69
2023-04-11T01:37:13.278Z,97516.94
2023-04-11T01:39:39.935Z,97509.75
2023-04-11T01:42:06.484Z,97507.50
2023-04-11T01:44:33.245Z,97509.78
2023-04-11T01:46:59.871Z,97508.31
2023-04-11T01:49:26.425Z,97504.69
2023-04-11T01:51:53.007Z,97507.63
2023-04-11T01:54:19.607Z,97508.78
2023-04-11T01:56:46.256Z,97510.41
2023-04-11T01:59:12.916Z,97507.31
2023-04-11T02:01:39.632Z,97504.78
2023-04-11T02:04:06.323Z,97494.47
2023-04-11T02:06:32.917Z,97478.38
2023-04-11T02:08:59.465Z,97478.72
2023-04-11T02:11:26.045Z,97474.47
2023-04-11T02:13:52.648Z,97469.75
2023-04-11T02:16:19.308Z,97466.00
2023-04-11T02:18:45.930Z,97458.97
2023-04-11T02:21:12.570Z,97456.84
2023-04-11T02:23:39.363Z,97441.63
2023-04-11T02:26:05.921Z,97436.88
2023-04-11T02:28:32.548Z,97435.91
2023-04-11T02:30:59.197Z,97428.38
2023-04-11T02:33:25.797Z,97439.75
2023-04-11T02:35:52.347Z,97441.72
2023-04-11T02:38:19.037Z,97429.47
2023-04-11T02:40:45.569Z,97429.81
2023-04-11T02:43:12.134Z,97434.31
2023-04-11T02:45:38.657Z,97425.47
2023-04-11T02:48:05.257Z,97422.72
2023-04-11T02:50:31.866Z,97423.66
2023-04-11T02:52:58.415Z,97424.72
2023-04-11T02:55:24.987Z,97427.59
2023-04-11T02:57:51.531Z,97426.50
2023-04-11T03:00:18.155Z,97419.69
2023-04-11T03:02:44.776Z,97421.78
2023-04-11T03:05:11.398Z,97420.88
2023-04-11T03:07:37.955Z,97417.84
2023-04-11T03:10:04.582Z,97400.06
2023-04-11T03:12:31.117Z,97387.97
2023-04-11T03:14:57.680Z,97392.03
2023-04-11T03:17:24.329Z,97387.78
2023-04-11T03:19:50.907Z,97372.97
2023-04-11T03:22:17.501Z,97368.25
2023-04-11T03:24:44.048Z,97368.09
2023-04-11T03:27:10.697Z,97359.13
2023-04-11T03:29:37.361Z,97358.16
2023-04-11T03:32:04.088Z,97365.19
2023-04-11T03:34:30.697Z,97357.31
2023-04-11T03:36:57.269Z,97358.78
2023-04-11T03:39:23.860Z,97364.34
2023-04-11T03:41:50.440Z,97360.75
2023-04-11T03:44:17.013Z,97356.00
2023-04-11T03:46:43.615Z,97356.47
2023-04-11T03:49:10.873Z,97366.31
2023-04-11T03:51:37.449Z,97362.53
2023-04-11T03:54:04.055Z,97370.06
2023-04-11T03:56:32.915Z,97371.69
2023-04-11T03:58:59.562Z,97375.41
2023-04-11T04:01:26.137Z,97362.03
2023-04-11T04:03:52.963Z,97363.38
2023-04-11T04:06:21.713Z,97357.81
2023-04-11T04:08:48.305Z,97354.53
2023-04-11T04:11:14.908Z,97351.59
2023-04-11T04:13:41.447Z,97347.69
2023-04-11T04:16:08.089Z,97335.28
2023-04-11T04:18:34.689Z,97330.72
2023-04-11T04:21:02.144Z,97332.97
2023-04-11T04:23:28.715Z,97334.13
2023-04-11T04:25:55.267Z,97335.28
2023-04-11T04:28:21.907Z,97340.66
2023-04-11T04:30:48.529Z,97342.47
2023-04-11T04:33:15.245Z,97344.59
2023-04-11T04:35:41.841Z,97340.50
2023-04-11T04:38:08.451Z,97338.03
2023-04-11T04:40:35.026Z,97331.66
2023-04-11T04:43:01.617Z,97332.00
2023-04-11T04:45:28.211Z,97323.00
2023-04-11T04:47:54.831Z,97320.06
2023-04-11T04:50:21.444Z,97323.81
2023-04-11T04:52:48.007Z,97320.72
2023-04-11T04:55:14.667Z,97333.28
2023-04-11T04:57:41.203Z,97327.72
2023-04-11T05:00:07.771Z,97315.75
2023-04-11T05:02:34.424Z,97335.19
2023-04-11T05:05:01.096Z,97328.38
2023-04-11T05:07:27.647Z,97319.59
2023-04-11T05:09:55.337Z,97308.50
2023-04-11T05:12:21.973Z,97319.75
2023-04-11T05:14:48.515Z,97320.25
2023-04-11T05:17:15.071Z,97319.25
2023-04-11T05:19:41.645Z,97325.63
2023-04-11T05:22:08.284Z,97321.38
2023-04-11T05:24:34.879Z,97316.78
2023-04-11T05:27:01.538Z,97322.34
2023-04-11T05:29:28.498Z,97309.41
2023-04-11T05:31:55.065Z,97303.50
2023-04-11T05:34:21.669Z,97303.03
2023-04-11T05:36:48.216Z,97293.28
2023-04-11T05:39:14.860Z,97293.34
2023-04-11T05:41:41.433Z,97286.91
2023-04-11T05:44:08.004Z,97282.63
2023-04-11T05:46:34.753Z,97277.47
2023-04-11T05:49:01.463Z,97273.63
2023-04-11T05:51:28.013Z,97274.56
2023-04-11T05:53:54.928Z,97270.06
2023-04-11T05:56:21.738Z,97268.22
2023-04-11T05:58:48.333Z,97266.75
2023-04-11T06:01:14.900Z,97260.78
2023-04-11T06:03:41.662Z,97264.66
2023-04-11T06:06:08.390Z,97261.47
2023-04-11T06:08:34.929Z,97264.16
2023-04-11T06:11:01.536Z,97261.06
2023-04-11T06:13:28.094Z,97266.31
2023-04-11T06:15:54.667Z,97262.38
2023-04-11T06:18:21.272Z,97254.56
2023-04-11T06:20:47.826Z,97251.25
2023-04-11T06:23:14.414Z,97251.31
2023-04-11T06:25:41.539Z,97251.38
2023-04-11T06:28:08.104Z,97249.78
2023-04-11T06:30:34.682Z,97246.91
2023-04-11T06:33:01.313Z,97240.06
2023-04-11T06:35:27.946Z,97244.50
2023-04-11T06:37:54.532Z,97248.19
2023-04-11T06:40:21.112Z,97248.28
2023-04-11T06:42:47.690Z,97245.31
2023-04-11T06:45:14.238Z,97240.41
2023-04-11T06:47:40.914Z,97232.50
2023-04-11T06:50:07.538Z,97226.66
2023-04-11T06:52:34.117Z,97225.72
2023-04-11T06:55:00.703Z,97217.16
2023-04-11T06:57:27.309Z,97218.16
2023-04-11T06:59:53.867Z,97224.03
2023-04-11T07:02:20.589Z,97228.09
2023-04-11T07:04:47.258Z,97225.47
2023-04-11T07:07:13.968Z,97210.88
2023-04-11T07:09:40.583Z,97202.16
2023-04-11T07:12:07.177Z,97204.22
2023-04-11T07:14:33.756Z,97194.91
2023-04-11T07:17:00.353Z,97190.22
2023-04-11T07:19:26.947Z,97183.94
2023-04-11T07:21:53.553Z,97168.69
2023-04-11T07:24:20.153Z,97173.72
2023-04-11T07:26:46.911Z,97178.19
2023-04-11T07:29:14.859Z,97175.75
2023-04-11T07:31:41.691Z,97180.34
2023-04-11T07:34:08.296Z,97196.59
2023-04-11T07:36:34.984Z,97194.81
2023-04-11T07:39:01.624Z,97192.63
2023-04-11T07:41:28.207Z,97182.06
2023-04-11T07:43:55.050Z,97191.41
2023-04-11T07:46:21.732Z,97187.09
2023-04-11T07:48:48.349Z,97174.69
2023-04-11T07:51:14.909Z,97182.84
2023-04-11T07:53:41.477Z,97167.44
2023-04-11T07:56:08.095Z,97170.78
2023-04-11T07:58:34.657Z,97164.25
2023-04-11T08:01:01.636Z,97158.69
2023-04-11T08:03:28.468Z,97164.44
2023-04-11T08:05:55.231Z,97167.03
2023-04-11T08:08:21.820Z,97177.47
2023-04-11T08:10:50.652Z,97173.38
2023-04-11T08:13:18.884Z,97168.72
2023-04-11T08:15:45.476Z,97172.53
2023-04-11T08:18:12.366Z,97170.44
2023-04-11T08:20:39.149Z,97168.03
2023-04-11T08:23:05.990Z,97157.72
2023-04-11T08:25:32.623Z,97160.53
2023-04-11T08:27:59.276Z,97160.56
2023-04-11T08:30:25.950Z,97162.56
2023-04-11T08:32:52.636Z,97154.13
2023-04-11T08:35:19.317Z,97149.75
2023-04-11T08:37:45.983Z,97148.75
2023-04-11T08:40:12.659Z,97162.41
2023-04-11T08:42:39.262Z,97170.97
2023-04-11T08:45:05.849Z,97147.31
2023-04-11T08:47:32.460Z,97151.16
2023-04-11T08:49:59.072Z,97144.06
2023-04-11T08:52:25.648Z,97130.03
2023-04-11T08:54:52.246Z,97139.00
2023-04-11T08:57:18.814Z,97121.72
2023-04-11T08:59:45.373Z,97099.09
2023-04-11T09:02:12.107Z,97100.50
2023-04-11T09:04:38.864Z,97110.44
2023-04-11T09:07:05.455Z,97110.94
2023-04-11T09:09:32.177Z,97111.97
2023-04-11T09:11:58.795Z,97097.41
2023-04-11T09:14:25.373Z,97097.31
2023-04-11T09:16:52.000Z,97091.94
2023-04-11T09:19:18.931Z,97103.75
2023-04-11T09:21:45.529Z,97106.94
2023-04-11T09:24:12.444Z,97099.97
2023-04-11T09:26:39.035Z,97078.22
2023-04-11T09:29:05.603Z,97074.25
2023-04-11T09:31:32.196Z,97081.34
2023-04-11T09:33:59.405Z,97084.88
2023-04-11T09:36:26.190Z,97075.56
2023-04-11T09:38:52.766Z,97076.03
2023-04-11T09:41:19.305Z,97071.91
2023-04-11T09:43:45.902Z,97067.06
2023-04-11T09:46:12.475Z,97066.97
2023-04-11T09:48:46.628Z,97059.00
2023-04-11T09:51:18.055Z,97057.28
2023-04-11T09:53:47.589Z,97052.34
2023-04-11T09:56:14.194Z,97054.28
2023-04-11T09:58:40.849Z,97052.41
2023-04-11T10:01:07.410Z,97032.59
2023-04-11T10:03:36.037Z,97041.59
2023-04-11T10:06:02.637Z,97054.59
2023-04-11T10:08:29.549Z,97067.75
2023-04-11T10:10:56.154Z,97064.56
2023-04-11T10:13:22.727Z,97058.78
2023-04-11T10:15:49.362Z,97056.22
2023-04-11T10:18:15.930Z,97055.44
2023-04-11T10:20:42.531Z,97057.28
2023-04-11T10:23:09.069Z,97042.56
2023-04-11T10:25:35.707Z,97020.47
2023-04-11T10:28:02.284Z,96996.41
2023-04-11T10:30:28.874Z,96990.63
2023-04-11T10:32:55.534Z,96983.69
2023-04-11T10:35:22.072Z,96980.03
2023-04-11T10:37:48.654Z,96980.00
2023-04-11T10:40:15.213Z,96981.94
2023-04-11T10:42:41.828Z,96973.50
2023-04-11T10:45:08.522Z,96978.63
2023-04-11T10:47:35.102Z,96975.09
2023-04-11T10:50:01.688Z,96970.16
2023-04-11T10:52:28.349Z,96972.03
2023-04-11T10:54:55.240Z,96949.75
2023-04-11T10:57:21.836Z,96944.47
2023-04-11T10:59:48.397Z,96951.47
2023-04-11T11:02:15.214Z,96964.41
2023-04-11T11:04:41.904Z,96958.53
2023-04-11T11:07:08.645Z,96960.28
2023-04-11T11:09:35.254Z,96958.31
2023-04-11T11:12:01.824Z,96961.41
2023-04-11T11:14:28.430Z,96955.91
2023-04-11T11:16:55.025Z,96959.72
2023-04-11T11:19:21.644Z,96959.25
2023-04-11T11:21:48.209Z,96952.00
2023-04-11T11:24:14.791Z,96959.53
2023-04-11T11:26:41.379Z,96956.44
2023-04-11T11:29:07.990Z,96950.06
2023-04-11T11:31:34.650Z,96948.03
2023-04-11T11:34:18.393Z,96941.78
2023-04-11T11:36:47.827Z,96932.53
2023-04-11T11:39:14.455Z,96922.47
2023-04-11T11:41:41.034Z,96917.63
2023-04-11T11:44:07.656Z,96925.41
2023-04-11T11:46:34.299Z,96919.06
2023-04-11T11:49:01.216Z,96916.75
2023-04-11T11:51:28.069Z,96917.06
2023-04-11T11:53:54.717Z,96908.97
2023-04-11T11:56:21.263Z,96910.28
2023-04-11T11:58:48.010Z,96891.78
2023-04-11T12:03:46.411Z,96910.31
2023-04-11T12:06:13.063Z,96903.63
2023-04-11T12:08:39.653Z,96900.06
2023-04-11T12:11:06.431Z,96902.22
2023-04-11T12:13:33.328Z,96900.22
2023-04-11T12:15:59.941Z,96896.66
2023-04-11T12:18:26.603Z,96890.47
2023-04-11T12:20:53.270Z,96894.75
2023-04-11T12:23:19.839Z,96893.72
2023-04-11T12:25:46.428Z,96877.25
2023-04-11T12:28:13.058Z,96882.59
2023-04-11T12:30:39.622Z,96882.03
2023-04-11T12:33:06.433Z,96874.78
2023-04-11T12:35:33.122Z,96872.38
2023-04-11T12:37:59.686Z,96872.25
2023-04-11T12:40:26.598Z,96879.94
2023-04-11T12:42:57.320Z,96877.25
2023-04-11T12:45:24.182Z,96869.16
2023-04-11T12:47:50.784Z,96870.53
2023-04-11T12:50:17.447Z,96867.53
2023-04-11T12:52:44.076Z,96869.56
2023-04-11T12:55:10.653Z,96870.41
2023-04-11T12:57:37.241Z,96872.91
2023-04-11T13:00:03.834Z,96865.72
2023-04-11T13:02:38.181Z,96867.34
2023-04-11T13:05:09.302Z,96862.66
2023-04-11T13:07:36.000Z,96856.44
2023-04-11T13:10:02.628Z,96858.81
2023-04-11T13:12:30.419Z,96853.72
2023-04-11T13:14:56.980Z,96860.41
2023-04-11T13:17:23.578Z,96847.66
2023-04-11T13:19:50.134Z,96852.72
2023-04-11T13:22:16.721Z,96847.03
2023-04-11T13:24:43.351Z,96836.06
2023-04-11T13:27:09.927Z,96833.63
2023-04-11T13:29:36.475Z,96834.75
2023-04-11T13:32:03.122Z,96834.91
2023-04-11T13:34:29.732Z,96836.47
2023-04-11T13:36:56.280Z,96836.88
2023-04-11T13:39:22.835Z,96831.06
2023-04-11T13:41:49.387Z,96836.78
2023-04-11T13:44:15.973Z,96830.47
2023-04-11T13:46:42.653Z,96822.44
2023-04-11T13:49:09.200Z,96824.31
2023-04-11T13:51:35.758Z,96823.16
2023-04-11T13:54:02.376Z,96828.22
2023-04-11T13:56:28.937Z,96829.78
2023-04-11T13:58:55.853Z,96829.16
2023-04-11T14:01:22.670Z,96823.66
2023-04-11T14:03:49.703Z,96824.75
2023-04-11T14:06:16.449Z,96829.59
2023-04-11T14:08:43.173Z,96836.22
2023-04-11T14:11:09.896Z,96843.13
2023-04-11T14:13:36.667Z,96842.81
2023-04-11T14:16:12.286Z,96846.28
2023-04-11T14:18:38.930Z,96856.56
2023-04-11T14:21:05.716Z,96857.66
2023-04-11T14:23:32.327Z,96864.28
2023-04-11T14:25:58.888Z,96863.31
2023-04-11T14:28:26.992Z,96882.31
2023-04-11T14:30:54.054Z,96874.56
2023-04-11T14:33:20.833Z,96885.78
2023-04-11T14:35:47.457Z,96889.00
2023-04-11T14:38:14.000Z,96894.88
2023-04-11T14:40:40.561Z,96886.84
2023-04-11T14:43:07.142Z,96897.28
2023-04-11T14:45:33.721Z,96893.53
2023-04-11T14:48:00.359Z,96884.53
2023-04-11T14:50:28.963Z,96900.66
2023-04-11T14:52:55.769Z,96886.91
2023-04-11T14:55:22.437Z,96898.28
2023-04-11T14:57:49.161Z,96890.28
2023-04-11T15:00:15.719Z,96897.78
2023-04-11T15:02:42.505Z,96908.03
2023-04-11T15:05:09.095Z,96910.75
2023-04-11T15:07:35.711Z,96909.63
2023-04-11T15:10:02.320Z,96917.91
2023-04-11T15:12:28.888Z,96923.13
2023-04-11T15:14:55.527Z,96922.63
2023-04-11T15:17:22.122Z,96930.38
2023-04-11T15:19:48.750Z,96932.59
2023-04-11T15:22:15.314Z,96950.28
2023-04-11T15:24:42.012Z,96949.66
2023-04-11T15:27:08.570Z,96945.22
2023-04-11T15:29:37.419Z,96954.03
2023-04-11T15:32:03.983Z,96947.38
2023-04-11T15:34:30.530Z,96953.03
2023-04-11T15:36:57.091Z,96952.13
2023-04-11T15:39:23.687Z,96951.56
2023-04-11T15:41:50.649Z,96956.00
2023-04-11T15:44:17.287Z,96958.88
2023-04-11T15:46:45.006Z,96968.41
2023-04-11T15:49:12.599Z,96970.03
2023-04-11T15:51:39.211Z,96987.75
2023-04-11T15:54:05.820Z,96979.78
2023-04-11T15:56:32.488Z,96991.28
2023-04-11T15:58:59.042Z,96990.25
2023-04-11T16:01:25.720Z,97001.22
2023-04-11T16:03:52.496Z,96999.81
2023-04-11T16:06:19.181Z,97013.97
2023-04-11T16:08:45.746Z,97018.88
2023-04-11T16:11:12.315Z,97023.22
2023-04-11T16:13:38.871Z,97017.28
2023-04-11T16:16:05.468Z,97019.84
2023-04-11T16:18:32.092Z,97022.44
2023-04-11T16:20:58.654Z,97026.59
2023-04-11T16:23:25.190Z,97034.69
2023-04-11T16:25:52.042Z,97041.34
2023-04-11T16:28:18.707Z,97029.69
2023-04-11T16:30:45.321Z,97037.13
2023-04-11T16:33:11.876Z,97037.00
2023-04-11T16:35:38.519Z,97041.47
2023-04-11T16:38:05.111Z,97041.94
2023-04-11T16:40:31.718Z,97036.72
2023-04-11T16:42:58.298Z,97044.66
2023-04-11T16:45:24.911Z,97049.00
2023-04-11T16:47:51.565Z,97043.97
2023-04-11T16:50:18.158Z,97055.88
2023-04-11T16:52:44.768Z,97053.09
2023-04-11T16:55:11.316Z,97042.97
2023-04-11T16:57:37.883Z,97048.28
2023-04-11T17:00:04.530Z,97049.34
2023-04-11T17:02:31.268Z,97054.19
2023-04-11T17:04:58.293Z,97041.22
2023-04-11T17:07:24.848Z,97027.34
2023-04-11T17:09:51.427Z,97018.03
2023-04-11T17:12:17.981Z,97020.44
2023-04-11T17:14:44.628Z,97014.41
2023-04-11T17:17:11.300Z,97001.06
2023-04-11T17:19:38.017Z,97006.97
2023-04-11T17:22:04.620Z,97011.84
2023-04-11T17:24:31.349Z,97013.91
2023-04-11T17:26:57.930Z,97015.03
2023-04-11T17:29:24.533Z,97005.63
2023-04-11T17:31:51.115Z,97003.78
2023-04-11T17:34:17.657Z,96998.31
2023-04-11T17:36:44.221Z,97004.81
2023-04-11T17:39:10.816Z,96999.59
2023-04-11T17:41:37.381Z,96995.66
2023-04-11T17:44:03.934Z,96988.06
2023-04-11T17:46:30.531Z,97002.50
2023-04-11T17:48:57.170Z,97005.28
2023-04-11T17:51:23.733Z,97017.69
2023-04-11T17:53:50.287Z,97010.78
2023-04-11T17:56:16.867Z,97013.44
2023-04-11T17:58:44.291Z,97025.44
2023-04-11T18:01:10.960Z,97025.09
2023-04-11T18:03:37.796Z,97028.88
2023-04-11T18:06:04.570Z,97035.53
2023-04-11T18:08:49.044Z,97041.66
2023-04-11T18:11:16.781Z,97035.50
2023-04-11T18:13:43.336Z,97029.72
2023-04-11T18:16:09.944Z,97045.84
2023-04-11T18:18:36.506Z,97044.47
2023-04-11T18:21:04.930Z,97053.47
2023-04-11T18:23:33.793Z,97058.75
2023-04-11T18:26:00.386Z,97050.66
2023-04-11T18:28:26.942Z,97056.50
2023-04-11T18:30:53.593Z,97047.22
2023-04-11T18:33:20.857Z,97053.22
2023-04-11T18:35:47.680Z,97054.59
2023-04-11T18:38:14.310Z,97054.31
2023-04-11T18:40:40.922Z,97053.28
2023-04-11T18:43:07.592Z,97063.44
2023-04-11T18:45:34.196Z,97073.41
2023-04-11T18:48:00.912Z,97074.19
2023-04-11T18:50:27.671Z,97074.81
2023-04-11T18:52:56.657Z,97083.97
2023-04-11T18:55:26.695Z,97091.97
2023-04-11T18:57:57.313Z,97089.66
2023-04-11T19:00:25.877Z,97103.75
2023-04-11T19:02:52.814Z,97101.88
2023-04-11T19:05:19.660Z,97106.34
2023-04-11T19:07:46.324Z,97118.13
2023-04-11T19:10:12.923Z,97118.53
2023-04-11T19:12:39.495Z,97107.41
2023-04-11T19:15:06.051Z,97110.69
2023-04-11T19:17:32.740Z,97121.84
2023-04-11T19:19:59.337Z,97130.41
2023-04-11T19:22:25.908Z,97127.38
2023-04-11T19:24:55.442Z,97135.09
2023-04-11T19:27:23.212Z,97138.88
2023-04-11T19:29:52.095Z,97139.34
2023-04-11T19:32:18.789Z,97134.28
2023-04-11T19:34:45.353Z,97138.25
2023-04-11T19:37:11.885Z,97138.47
2023-04-11T19:39:38.666Z,97135.38
2023-04-11T19:42:05.256Z,97132.78
2023-04-11T19:44:31.856Z,97139.44
2023-04-11T19:46:58.402Z,97138.66
2023-04-11T19:49:24.956Z,97147.53
2023-04-11T19:51:51.658Z,97155.03
2023-04-11T19:54:18.228Z,97150.56
2023-04-11T19:56:44.818Z,97148.31
2023-04-11T19:59:11.401Z,97144.47
2023-04-11T20:01:38.131Z,97146.94
2023-04-11T20:04:04.992Z,97158.91
2023-04-11T20:06:31.645Z,97148.31
2023-04-11T20:08:59.247Z,97147.97
2023-04-11T20:11:27.396Z,97148.78
2023-04-11T20:13:55.803Z,97144.53
2023-04-11T20:16:22.690Z,97149.56
2023-04-11T20:18:49.273Z,97149.19
2023-04-11T20:21:15.960Z,97148.66
2023-04-11T20:23:42.509Z,97155.94
2023-04-11T20:26:09.091Z,97152.47
2023-04-11T20:28:35.625Z,97146.47
2023-04-11T20:31:02.230Z,97155.31
2023-04-11T20:33:28.904Z,97151.69
2023-04-11T20:35:55.503Z,97157.69
2023-04-11T20:38:22.098Z,97160.88
2023-04-11T20:40:48.702Z,97150.38
2023-04-11T20:43:15.253Z,97159.44
2023-04-11T20:45:41.838Z,97163.22
2023-04-11T20:48:08.428Z,97161.09
2023-04-11T20:50:35.060Z,97155.34
2023-04-11T20:53:01.606Z,97170.69
2023-04-11T20:55:28.161Z,97173.56
2023-04-11T20:57:54.753Z,97170.28
2023-04-11T21:00:21.324Z,97168.22
2023-04-11T21:02:48.010Z,97177.78
2023-04-11T21:05:14.646Z,97185.66
2023-04-11T21:07:41.841Z,97185.72
2023-04-11T21:10:08.412Z,97189.28
2023-04-11T21:12:34.985Z,97190.59
2023-04-11T21:15:01.557Z,97188.84
2023-04-11T21:17:28.177Z,97190.63
2023-04-11T21:19:54.750Z,97190.59
2023-04-11T21:22:21.293Z,97202.38
2023-04-11T21:24:47.849Z,97204.25
2023-04-11T21:27:14.441Z,97209.75
2023-04-11T21:29:41.048Z,97211.56
2023-04-11T21:32:07.768Z,97202.09
2023-04-11T21:34:34.309Z,97209.97
2023-04-11T21:37:01.002Z,97206.34
2023-04-11T21:39:27.580Z,97208.50
2023-04-11T21:41:54.210Z,97205.59
2023-04-11T21:44:20.824Z,97208.59
2023-04-11T21:46:47.406Z,97211.56
2023-04-11T21:49:13.985Z,97204.91
2023-04-11T21:51:40.556Z,97201.28
2023-04-11T21:54:07.156Z,97189.81
2023-04-11T21:56:33.730Z,97190.78
2023-04-11T21:59:00.263Z,97191.22
2023-04-11T22:01:27.001Z,97191.22
2023-04-11T22:03:53.817Z,97188.31
2023-04-11T22:06:20.540Z,97184.97
2023-04-11T22:08:47.128Z,97191.25
2023-04-11T22:11:13.677Z,97195.66
2023-04-11T22:13:40.220Z,97198.72
2023-04-11T22:16:06.817Z,97200.28
2023-04-11T22:18:34.166Z,97198.91
2023-04-11T22:21:01.458Z,97201.25
2023-04-11T22:23:28.167Z,97192.47
2023-04-11T22:25:54.691Z,97186.88
2023-04-11T22:28:21.589Z,97186.53
2023-04-11T22:30:48.194Z,97178.09
2023-04-11T22:33:14.792Z,97174.47
2023-04-11T22:35:41.382Z,97183.06
2023-04-11T22:38:07.948Z,97180.59
2023-04-11T22:40:34.514Z,97185.84
2023-04-11T22:43:01.154Z,97199.19
2023-04-11T22:45:27.725Z,97194.44
2023-04-11T22:47:54.618Z,97198.25
2023-04-11T22:50:21.276Z,97198.03
2023-04-11T22:52:47.832Z,97196.31
2023-04-11T22:55:14.392Z,97188.56
2023-04-11T22:57:41.001Z,97186.59
2023-04-11T23:00:07.602Z,97191.06
2023-04-11T23:02:34.385Z,97187.06
2023-04-11T23:05:01.068Z,97195.66
2023-04-11T23:07:27.710Z,97187.31
2023-04-11T23:09:54.265Z,97193.09
2023-04-11T23:12:20.814Z,97189.72
2023-04-11T23:14:47.366Z,97180.19
2023-04-11T23:17:13.977Z,97174.31
2023-04-11T23:19:40.534Z,97182.06
2023-04-11T23:22:07.061Z,97177.97
2023-04-11T23:24:33.641Z,97175.44
2023-04-11T23:27:00.193Z,97177.56
2023-04-11T23:29:26.752Z,97176.66
2023-04-11T23:31:53.286Z,97177.09
2023-04-11T23:34:19.896Z,97181.66
2023-04-11T23:36:46.513Z,97182.81
2023-04-11T23:39:13.128Z,97170.84
2023-04-11T23:41:39.696Z,97173.47
2023-04-11T23:44:06.274Z,97174.44
2023-04-11T23:46:32.904Z,97168.25
2023-04-11T23:48:59.538Z,97172.66
2023-04-11T23:51:26.212Z,97156.75
2023-04-11T23:53:52.821Z,97152.94
2023-04-11T23:56:19.716Z,97153.75
2023-04-11T23:58:46.314Z,97153.44
